Time;durP1;ratioP1;P1;durP2;ratioP2;P2;SDS_P1;SDS_P2;PMS_P1;PMS_P2;Temp;Humidity;BMP_temperature;BMP_pressure;BME280_temperature;BME280_humidity;BME280_pressure;Samples;Min_cycle;Max_cycle;Signal;HPM_P1;HPM_P2
2024/01/13 00:01:28;;;;;;;;;;;;;;;-1.22;68.37;100206.37;4311244;33;33628;-82
2024/01/13 00:03:58;;;;;;;;;;;;;;;-1.15;68.15;100210.91;4309646;33;32860;-82
2024/01/13 00:06:27;;;;;;;;;;;;;;;-1.30;68.76;100212.00;4305801;33;35644;-85
2024/01/13 00:08:55;;;;;;;;;;;;;;;-1.19;68.19;100215.00;4324474;33;33794;-85
2024/01/13 00:11:24;;;;;;;;;;;;;;;-1.06;67.80;100216.41;4309685;33;34348;-82
2024/01/13 00:13:52;;;;;;;;;;;;;;;-0.99;67.36;100209.87;4310207;33;33767;-84
2024/01/13 00:16:20;;;;;;;;;;;;;;;-1.03;67.36;100201.25;4311751;33;33563;-84
2024/01/13 00:18:49;;;;;;;;;;;;;;;-1.15;67.57;100208.38;4312121;33;33803;-82
2024/01/13 00:21:19;;;;;;;;;;;;;;;-1.24;67.42;100208.84;4320146;33;33672;-83
2024/01/13 00:23:47;;;;;;;;;;;;;;;-1.29;67.67;100200.13;4322495;33;33715;-83
2024/01/13 00:26:16;;;;;;;;;;;;;;;-1.17;66.98;100190.47;4314892;33;33282;-83
2024/01/13 00:28:44;;;;;;;;;;;;;;;-1.20;67.07;100202.22;4311632;33;33803;-84
2024/01/13 00:31:13;;;;;;;;;;;;;;;-1.18;66.72;100219.28;4320226;33;34180;-82
2024/01/13 00:33:43;;;;;;;;;;;;;;;-1.13;66.72;100220.34;4310889;33;32726;-83
2024/01/13 00:36:12;;;;;;;;;;;;;;;-0.97;65.83;100211.66;4322198;33;32815;-84
2024/01/13 00:38:42;;;;;;;;;;;;;;;-0.75;65.37;100227.84;4323463;33;33819;-82
2024/01/13 00:41:11;;;;;;;;;;;;;;;-0.75;64.89;100220.19;4319792;33;34567;-85
2024/01/13 00:43:44;;;;;;;;;;;;;;;-0.92;65.49;100228.03;4330180;33;34760;-85
2024/01/13 00:46:12;;;;;;;;;;;;;;;-0.91;65.47;100231.44;4319383;33;33271;-83
2024/01/13 00:48:40;;;;;;;;;;;;;;;-0.82;65.14;100216.53;4314972;33;34069;-84
2024/01/13 00:51:11;;;;;;;;;;;;;;;-0.88;65.22;100212.03;4310895;33;33982;-84
2024/01/13 00:53:43;;;;;;;;;;;;;;;-0.87;65.15;100198.53;4315614;33;33735;-82
2024/01/13 00:56:12;;;;;;;;;;;;;;;-1.19;66.28;100204.81;4316944;33;33869;-82
2024/01/13 00:58:40;;;;;;;;;;;;;;;-1.05;66.17;100212.16;4321629;33;34041;-82
2024/01/13 01:01:13;;;;;;;;;;;;;;;-0.96;65.54;100221.06;4320975;33;34354;-85
2024/01/13 01:03:45;;;;;;;;;;;;;;;-1.04;65.93;100224.09;4318394;33;34874;-82
2024/01/13 01:06:14;;;;;;;;;;;;;;;-0.97;65.56;100221.84;4321898;33;33547;-85
2024/01/13 01:08:44;;;;;;;;;;;;;;;-0.86;65.19;100228.28;4320934;33;33827;-84
2024/01/13 01:11:13;;;;;;;;;;;;;;;-0.96;65.54;100226.16;4319849;33;33868;-82
2024/01/13 01:13:41;;;;;;;;;;;;;;;-0.89;65.30;100223.06;4324460;33;33916;-82
2024/01/13 01:16:10;;;;;;;;;;;;;;;-0.98;65.71;100215.03;4320567;33;34409;-82
2024/01/13 01:18:38;;;;;;;;;;;;;;;-0.94;65.58;100221.13;4312839;33;33713;-83
2024/01/13 01:21:14;;;;;;;;;;;;;;;-1.13;66.34;100219.50;4325088;33;33807;-84
2024/01/13 01:23:47;;;;;;;;;;;;;;;-1.13;66.51;100220.34;4324837;33;34383;-83
2024/01/13 01:26:16;;;;;;;;;;;;;;;-1.05;66.30;100213.03;4314534;33;34196;-83
2024/01/13 01:28:45;;;;;;;;;;;;;;;-0.93;65.59;100211.00;4316155;33;33553;-83
2024/01/13 01:31:14;;;;;;;;;;;;;;;-1.13;66.36;100206.75;4320060;33;34573;-83
2024/01/13 01:33:43;;;;;;;;;;;;;;;-1.10;66.29;100205.19;4322575;33;34262;-83
2024/01/13 01:36:15;;;;;;;;;;;;;;;-0.83;65.59;100191.84;4327789;33;33811;-84
2024/01/13 01:38:44;;;;;;;;;;;;;;;-0.73;64.92;100193.09;4331916;33;34881;-85
2024/01/13 01:41:20;;;;;;;;;;;;;;;-0.77;65.02;100191.25;4313825;33;34267;-84
2024/01/13 01:43:48;;;;;;;;;;;;;;;-0.77;65.03;100196.34;4311559;33;33826;-82
2024/01/13 01:46:17;;;;;;;;;;;;;;;-0.92;65.49;100166.00;4314774;33;33074;-84
2024/01/13 01:48:47;;;;;;;;;;;;;;;-1.16;66.27;100183.69;4317479;33;33609;-85
2024/01/13 01:51:21;;;;;;;;;;;;;;;-1.29;66.68;100183.19;4329422;33;33623;-83
2024/01/13 01:53:49;;;;;;;;;;;;;;;-1.22;66.56;100170.72;4321530;33;34505;-83
2024/01/13 01:56:18;;;;;;;;;;;;;;;-1.22;66.67;100163.97;4316337;33;33916;-84
2024/01/13 01:58:52;;;;;;;;;;;;;;;-1.12;66.09;100166.06;4310925;33;33696;-82
2024/01/13 02:01:24;;;;;;;;;;;;;;;-1.10;66.18;100168.69;4328893;33;35101;-83
2024/01/13 02:03:53;;;;;;;;;;;;;;;-1.05;66.03;100157.00;4326154;33;34377;-85
2024/01/13 02:06:25;;;;;;;;;;;;;;;-0.96;65.56;100149.75;4319571;33;33748;-83
2024/01/13 02:08:54;;;;;;;;;;;;;;;-0.91;65.53;100152.50;4322574;33;33730;-85
2024/01/13 02:11:25;;;;;;;;;;;;;;;-0.98;65.58;100155.59;4326045;33;33807;-84
2024/01/13 02:13:54;;;;;;;;;;;;;;;-0.87;65.20;100155.22;4331388;33;34743;-82
2024/01/13 02:16:23;;;;;;;;;;;;;;;-0.98;65.27;100153.06;4314013;33;33345;-82
2024/01/13 02:18:54;;;;;;;;;;;;;;;-0.92;65.45;100156.72;4311871;33;34777;-84
2024/01/13 02:21:33;;;;;;;;;;;;;;;-0.78;64.93;100157.25;4311174;33;33986;-82
2024/01/13 02:24:03;;;;;;;;;;;;;;;-0.68;64.45;100164.47;4317067;33;33391;-82
2024/01/13 02:26:40;;;;;;;;;;;;;;;-0.78;64.49;100169.13;4316803;33;34058;-82
2024/01/13 02:29:14;;;;;;;;;;;;;;;-0.88;65.10;100163.66;4311007;33;34664;-83
2024/01/13 02:31:42;;;;;;;;;;;;;;;-0.76;64.81;100167.50;4312345;33;33727;-84
2024/01/13 02:34:12;;;;;;;;;;;;;;;-0.67;64.44;100163.66;4312191;33;33938;-84
2024/01/13 02:36:41;;;;;;;;;;;;;;;-0.52;63.95;100170.16;4316969;33;32946;-84
2024/01/13 02:39:11;;;;;;;;;;;;;;;-0.46;63.74;100171.28;4312926;33;34510;-83
2024/01/13 02:41:43;;;;;;;;;;;;;;;-0.61;64.00;100169.78;4311232;33;34051;-84
2024/01/13 02:44:18;;;;;;;;;;;;;;;-0.77;64.46;100171.75;4312508;33;33501;-84
2024/01/13 02:46:49;;;;;;;;;;;;;;;-0.75;64.69;100174.34;4328116;33;33343;-84
2024/01/13 02:49:19;;;;;;;;;;;;;;;-0.64;64.37;100170.53;4329626;33;34745;-82
2024/01/13 02:51:47;;;;;;;;;;;;;;;-0.76;64.69;100167.50;4312685;33;33618;-83
2024/01/13 02:54:22;;;;;;;;;;;;;;;-0.53;63.98;100174.38;4318263;33;35603;-83
2024/01/13 02:56:52;;;;;;;;;;;;;;;-0.63;64.34;100164.62;4314180;33;33045;-82
2024/01/13 02:59:21;;;;;;;;;;;;;;;-0.66;64.61;100174.69;4320912;33;34012;-83
2024/01/13 03:01:49;;;;;;;;;;;;;;;-0.59;64.21;100158.84;4313423;33;35523;-84
2024/01/13 03:04:27;;;;;;;;;;;;;;;-0.74;64.72;100150.62;4313621;33;34317;-83
2024/01/13 03:06:55;;;;;;;;;;;;;;;-0.56;64.15;100151.31;4313076;33;33056;-83
2024/01/13 03:09:28;;;;;;;;;;;;;;;-0.52;63.91;100147.22;4310665;33;34083;-85
2024/01/13 03:11:58;;;;;;;;;;;;;;;-0.58;64.24;100129.13;4315832;33;33577;-83
2024/01/13 03:14:30;;;;;;;;;;;;;;;-0.45;63.66;100124.56;4310710;33;34057;-83
2024/01/13 03:16:59;;;;;;;;;;;;;;;-0.63;64.25;100118.75;4321326;33;32787;-83
2024/01/13 03:19:34;;;;;;;;;;;;;;;-0.60;64.32;100115.47;4321488;33;34129;-83
2024/01/13 03:22:04;;;;;;;;;;;;;;;-0.49;64.03;100119.28;4311923;33;34061;-82
2024/01/13 03:24:36;;;;;;;;;;;;;;;-0.67;64.62;100119.47;4316100;33;34043;-82
2024/01/13 03:27:14;;;;;;;;;;;;;;;-0.87;65.35;100134.84;4312761;33;33022;-82
2024/01/13 03:29:43;;;;;;;;;;;;;;;-0.92;65.79;100112.53;4310555;33;33508;-82
2024/01/13 03:32:11;;;;;;;;;;;;;;;-0.70;65.03;100112.59;4322893;33;35279;-83
2024/01/13 03:34:40;;;;;;;;;;;;;;;-0.71;65.09;100108.28;4316052;33;35060;-84
2024/01/13 03:39:42;;;;;;;;;;;;;;;-0.81;65.33;100126.56;4309795;33;34076;-83
2024/01/13 03:42:15;;;;;;;;;;;;;;;-0.88;65.81;100116.94;4325185;33;34270;-83
2024/01/13 03:44:43;;;;;;;;;;;;;;;-0.74;65.29;100115.81;4329827;33;35004;-82
2024/01/13 03:47:15;;;;;;;;;;;;;;;-0.59;64.77;100119.75;4319011;33;33773;-85
2024/01/13 03:49:43;;;;;;;;;;;;;;;-0.78;65.39;100113.94;4328213;33;33114;-85
2024/01/13 03:52:12;;;;;;;;;;;;;;;-0.61;65.01;100122.25;4324693;33;33872;-83
2024/01/13 03:54:45;;;;;;;;;;;;;;;-0.78;65.43;100105.44;4312074;33;34097;-81
2024/01/13 03:57:19;;;;;;;;;;;;;;;-0.67;64.94;100107.59;4320136;33;33812;-82
2024/01/13 03:59:47;;;;;;;;;;;;;;;-0.63;65.18;100116.22;4331996;33;33514;-84
2024/01/13 04:02:16;;;;;;;;;;;;;;;-0.54;64.89;100111.47;4313792;33;33749;-83
2024/01/13 04:04:48;;;;;;;;;;;;;;;-0.29;64.02;100097.09;4312718;33;34728;-83
2024/01/13 04:07:20;;;;;;;;;;;;;;;-0.38;64.09;100099.31;4312675;33;33441;-83
2024/01/13 04:09:50;;;;;;;;;;;;;;;-0.22;63.64;100099.06;4317191;33;33552;-82
2024/01/13 04:12:23;;;;;;;;;;;;;;;-0.33;64.09;100101.22;4324401;33;33724;-83
2024/01/13 04:14:52;;;;;;;;;;;;;;;-0.36;64.49;100092.56;4327237;33;35182;-85
2024/01/13 04:17:20;;;;;;;;;;;;;;;-0.39;64.48;100097.56;4330487;33;34917;-82
2024/01/13 04:19:51;;;;;;;;;;;;;;;-0.39;64.73;100098.44;4327750;33;34188;-85
2024/01/13 04:22:22;;;;;;;;;;;;;;;-0.19;64.04;100076.25;4319769;33;34307;-84
2024/01/13 04:24:54;;;;;;;;;;;;;;;-0.41;64.50;100089.00;4312442;33;34216;-82
2024/01/13 04:27:26;;;;;;;;;;;;;;;-0.78;65.96;100088.47;4314592;33;33129;-83
2024/01/13 04:29:55;;;;;;;;;;;;;;;-0.49;65.44;100076.84;4311887;33;34919;-83
2024/01/13 04:32:26;;;;;;;;;;;;;;;-0.58;65.59;100084.16;4328452;33;33777;-85
2024/01/13 04:34:56;;;;;;;;;;;;;;;-0.63;65.89;100080.53;4323266;33;34360;-82
2024/01/13 04:37:31;;;;;;;;;;;;;;;-0.64;66.08;100076.28;4327971;33;33658;-83
2024/01/13 04:39:59;;;;;;;;;;;;;;;-0.56;65.64;100069.75;4326647;33;33691;-82
2024/01/13 04:42:31;;;;;;;;;;;;;;;-0.58;66.00;100066.31;4326466;33;33500;-83
2024/01/13 04:44:59;;;;;;;;;;;;;;;-0.57;65.90;100075.69;4332444;33;34943;-83
2024/01/13 04:47:31;;;;;;;;;;;;;;;-0.45;65.74;100072.72;4323129;33;33610;-84
2024/01/13 04:50:00;;;;;;;;;;;;;;;-0.44;65.59;100070.22;4324911;33;33670;-83
2024/01/13 04:52:34;;;;;;;;;;;;;;;-0.32;65.24;100068.94;4316137;33;33369;-84
2024/01/13 04:55:03;;;;;;;;;;;;;;;-0.38;65.43;100068.75;4328696;33;33923;-85
2024/01/13 04:57:42;;;;;;;;;;;;;;;-0.48;65.84;100068.41;4313540;33;33631;-82
2024/01/13 05:00:16;;;;;;;;;;;;;;;-0.48;65.84;100064.97;4311874;33;32879;-83
2024/01/13 05:02:45;;;;;;;;;;;;;;;-0.50;66.09;100064.06;4325302;33;34849;-83
2024/01/13 05:05:26;;;;;;;;;;;;;;;-0.44;65.71;100062.56;4331814;33;34475;-83
2024/01/13 05:07:55;;;;;;;;;;;;;;;-0.29;65.13;100064.84;4441085;27;33147;-83
2024/01/13 05:10:25;;;;;;;;;;;;;;;-0.41;65.64;100061.84;4312240;33;34628;-82
2024/01/13 05:12:57;;;;;;;;;;;;;;;-0.19;64.92;100070.25;4326298;33;33267;-83
2024/01/13 05:15:25;;;;;;;;;;;;;;;0.01;64.30;100064.19;4326226;33;34100;-84
2024/01/13 05:17:55;;;;;;;;;;;;;;;0.20;63.64;100066.56;4330164;33;33500;-83
2024/01/13 05:20:23;;;;;;;;;;;;;;;0.10;63.94;100071.31;4317622;33;33566;-83
2024/01/13 05:22:59;;;;;;;;;;;;;;;-0.18;64.57;100067.75;4325246;33;33680;-83
2024/01/13 05:25:33;;;;;;;;;;;;;;;0.40;63.20;100063.81;4326073;33;34001;-83
2024/01/13 05:28:03;;;;;;;;;;;;;;;0.49;62.79;100063.28;4326092;33;33656;-83
2024/01/13 05:30:34;;;;;;;;;;;;;;;0.23;63.70;100070.03;4331728;33;34207;-84
2024/01/13 05:33:03;;;;;;;;;;;;;;;0.49;62.77;100066.69;4330478;33;33897;-83
2024/01/13 05:35:32;;;;;;;;;;;;;;;0.65;62.17;100065.50;4324858;33;34024;-84
2024/01/13 05:38:01;;;;;;;;;;;;;;;0.69;62.05;100069.03;4324793;33;34294;-84
2024/01/13 05:40:30;;;;;;;;;;;;;;;0.63;62.18;100073.12;4326714;33;33335;-85
2024/01/13 05:43:03;;;;;;;;;;;;;;;0.69;61.96;100067.34;4330789;33;33832;-82
2024/01/13 05:45:32;;;;;;;;;;;;;;;0.91;61.39;100062.91;4325281;33;33888;-86
2024/01/13 05:48:06;;;;;;;;;;;;;;;0.80;61.65;100068.56;4326620;33;34094;-83
2024/01/13 05:50:41;;;;;;;;;;;;;;;0.64;62.28;100062.06;4327451;33;34381;-83
2024/01/13 05:53:09;;;;;;;;;;;;;;;0.13;64.42;100058.66;4325175;33;33864;-84
2024/01/13 05:58:13;;;;;;;;;;;;;;;0.39;63.75;100065.50;4320882;33;33618;-83
2024/01/13 06:00:41;;;;;;;;;;;;;;;0.47;63.88;100064.91;4326534;33;34101;-83
2024/01/13 06:03:11;;;;;;;;;;;;;;;0.42;64.03;100070.72;4322667;33;34622;-83
2024/01/13 06:05:39;;;;;;;;;;;;;;;0.22;64.24;100071.72;4330961;33;34860;-83
2024/01/13 06:08:12;;;;;;;;;;;;;;;0.62;63.87;100080.72;4325901;33;33119;-85
2024/01/13 06:10:40;;;;;;;;;;;;;;;0.83;62.75;100086.53;4325809;33;34980;-83
2024/01/13 06:13:18;;;;;;;;;;;;;;;0.64;63.57;100079.09;4326233;33;33898;-86
2024/01/13 06:15:49;;;;;;;;;;;;;;;0.57;63.66;100077.16;4326621;33;34383;-83
2024/01/13 06:18:18;;;;;;;;;;;;;;;0.34;64.71;100069.59;4331767;33;33224;-84
2024/01/13 06:20:50;;;;;;;;;;;;;;;0.51;64.23;100061.63;4328817;33;34285;-83
2024/01/13 06:23:19;;;;;;;;;;;;;;;0.31;64.84;100063.50;4326033;33;34621;-84
2024/01/13 06:25:51;;;;;;;;;;;;;;;0.29;64.88;100057.47;4325932;33;34529;-83
2024/01/13 06:28:21;;;;;;;;;;;;;;;0.38;65.19;100065.44;4375766;27;33580;-84
2024/01/13 06:30:52;;;;;;;;;;;;;;;0.76;63.94;100068.41;4326335;33;33497;-84
2024/01/13 06:33:25;;;;;;;;;;;;;;;0.69;64.29;100071.56;4325970;33;34976;-85
2024/01/13 06:35:55;;;;;;;;;;;;;;;0.83;63.55;100071.19;4328516;33;34390;-84
2024/01/13 06:38:27;;;;;;;;;;;;;;;0.81;63.85;100070.28;4330437;33;33975;-84
2024/01/13 06:40:59;;;;;;;;;;;;;;;0.73;64.55;100060.66;4330113;33;33613;-86
2024/01/13 06:43:29;;;;;;;;;;;;;;;1.30;62.35;100053.03;4328444;33;34000;-83
2024/01/13 06:46:00;;;;;;;;;;;;;;;1.53;61.67;100048.62;4326148;33;34204;-87
2024/01/13 06:48:29;;;;;;;;;;;;;;;1.48;61.66;100048.47;4325969;33;33538;-83
2024/01/13 06:50:58;;;;;;;;;;;;;;;1.49;61.60;100046.78;4330310;33;33879;-84
2024/01/13 06:53:30;;;;;;;;;;;;;;;1.37;61.97;100044.72;4324562;33;33689;-84
2024/01/13 06:55:59;;;;;;;;;;;;;;;1.32;62.20;100050.53;4324948;33;35051;-84
2024/01/13 06:58:35;;;;;;;;;;;;;;;1.33;62.00;100057.37;4325275;33;32969;-86
2024/01/13 07:01:05;;;;;;;;;;;;;;;0.98;63.31;100055.50;4326157;33;34407;-86
2024/01/13 07:03:34;;;;;;;;;;;;;;;1.07;63.03;100065.13;4330890;33;33858;-84
2024/01/13 07:06:06;;;;;;;;;;;;;;;1.18;63.23;100058.66;4325952;33;34178;-86
2024/01/13 07:08:36;;;;;;;;;;;;;;;1.16;63.25;100059.44;4326139;33;33003;-84
2024/01/13 07:11:12;;;;;;;;;;;;;;;1.34;62.84;100048.91;4325769;33;33681;-84
2024/01/13 07:13:50;;;;;;;;;;;;;;;1.44;62.56;100045.78;4320042;33;34077;-84
2024/01/13 07:16:18;;;;;;;;;;;;;;;1.49;62.43;100042.53;4316093;33;33330;-86
2024/01/13 07:18:47;;;;;;;;;;;;;;;1.61;62.23;100043.72;4311027;33;34896;-87
2024/01/13 07:21:19;;;;;;;;;;;;;;;1.30;63.50;100041.97;4310873;33;33911;-83
2024/01/13 07:23:54;;;;;;;;;;;;;;;1.47;63.03;100046.75;4316100;33;35005;-82
2024/01/13 07:26:22;;;;;;;;;;;;;;;1.63;62.77;100042.94;4316220;33;34956;-82
2024/01/13 07:29:00;;;;;;;;;;;;;;;1.46;63.63;100047.56;4310076;33;33031;-82
2024/01/13 07:31:28;;;;;;;;;;;;;;;1.47;63.84;100044.22;4310403;33;35099;-83
2024/01/13 07:34:04;;;;;;;;;;;;;;;1.72;63.29;100034.66;4313845;33;34078;-84
2024/01/13 07:36:38;;;;;;;;;;;;;;;1.63;63.32;100026.72;4311000;33;33841;-82
2024/01/13 07:39:09;;;;;;;;;;;;;;;1.80;62.76;100025.50;4316146;33;33474;-82
2024/01/13 07:41:38;;;;;;;;;;;;;;;1.82;63.04;100033.22;4310894;33;34869;-83
2024/01/13 07:44:10;;;;;;;;;;;;;;;1.94;62.17;100030.16;4321734;33;33660;-84
2024/01/13 07:46:43;;;;;;;;;;;;;;;1.57;63.53;100030.00;4325131;33;35537;-82
2024/01/13 07:49:12;;;;;;;;;;;;;;;1.59;63.60;100027.47;4329247;33;34187;-84
2024/01/13 07:51:41;;;;;;;;;;;;;;;1.30;64.76;100029.19;4330167;33;34324;-82
2024/01/13 07:54:10;;;;;;;;;;;;;;;1.16;65.14;100038.97;4316973;33;34703;-81
2024/01/13 07:56:39;;;;;;;;;;;;;;;1.62;63.97;100032.66;4310378;33;34042;-81
2024/01/13 07:59:10;;;;;;;;;;;;;;;1.42;64.44;100021.88;4310178;33;34359;-82
2024/01/13 08:01:39;;;;;;;;;;;;;;;1.53;64.18;100024.75;4315699;33;34127;-84
2024/01/13 08:04:12;;;;;;;;;;;;;;;1.36;64.97;100017.44;4315801;33;34048;-83
2024/01/13 08:06:41;;;;;;;;;;;;;;;1.41;64.98;100012.47;4310157;33;33794;-82
2024/01/13 08:09:11;;;;;;;;;;;;;;;1.26;65.34;100010.34;4310740;33;32546;-82
2024/01/13 08:11:39;;;;;;;;;;;;;;;1.31;65.20;100016.47;4329978;33;34665;-85
2024/01/13 08:14:17;;;;;;;;;;;;;;;1.20;65.80;100016.13;4330362;33;35037;-82
2024/01/13 08:16:52;;;;;;;;;;;;;;;1.36;65.08;100012.34;4324359;33;34285;-82
2024/01/13 08:19:20;;;;;;;;;;;;;;;1.05;65.97;100025.91;4324787;33;33301;-84
2024/01/13 08:21:50;;;;;;;;;;;;;;;1.33;65.52;100009.69;4325712;33;33804;-83
2024/01/13 08:24:19;;;;;;;;;;;;;;;1.21;65.30;100017.88;4328058;33;35105;-83
2024/01/13 08:26:48;;;;;;;;;;;;;;;1.26;65.56;100023.13;4312459;33;34151;-84
2024/01/13 08:29:21;;;;;;;;;;;;;;;1.27;65.46;100023.16;4311809;33;33728;-83
2024/01/13 08:31:53;;;;;;;;;;;;;;;0.98;66.20;100021.41;4311760;33;33603;-83
2024/01/13 08:34:21;;;;;;;;;;;;;;;0.84;67.11;100028.66;4315038;33;33304;-81
2024/01/13 08:36:57;;;;;;;;;;;;;;;1.27;65.70;100015.47;4317631;33;36239;-83
2024/01/13 08:39:25;;;;;;;;;;;;;;;1.21;65.61;100014.47;4318797;33;33401;-82
2024/01/13 08:41:54;;;;;;;;;;;;;;;1.11;66.05;100017.53;4323125;33;34688;-83
2024/01/13 08:44:27;;;;;;;;;;;;;;;1.21;66.23;100010.22;4317809;33;33968;-83
2024/01/13 08:46:59;;;;;;;;;;;;;;;1.50;65.39;100005.06;4323413;33;34612;-83
2024/01/13 08:49:29;;;;;;;;;;;;;;;1.40;64.90;100015.84;4319340;33;33977;-85
2024/01/13 08:51:59;;;;;;;;;;;;;;;1.15;66.06;100012.56;4319467;33;34455;-84
2024/01/13 08:54:27;;;;;;;;;;;;;;;1.24;65.52;100015.41;4314456;33;34979;-83
2024/01/13 08:56:58;;;;;;;;;;;;;;;1.35;65.42;100015.69;4322463;33;34064;-84
2024/01/13 08:59:29;;;;;;;;;;;;;;;1.53;64.57;100020.50;4327709;33;33939;-85
2024/01/13 09:01:58;;;;;;;;;;;;;;;1.28;65.17;100024.00;4319804;33;33769;-84
2024/01/13 09:04:30;;;;;;;;;;;;;;;1.05;66.19;100031.88;4313171;33;33303;-85
2024/01/13 09:06:59;;;;;;;;;;;;;;;1.12;66.15;100025.25;4312647;33;33991;-84
2024/01/13 09:09:35;;;;;;;;;;;;;;;1.44;65.37;100033.00;4328552;33;33392;-83
2024/01/13 09:12:05;;;;;;;;;;;;;;;1.47;64.63;100020.31;4332065;33;34396;-82
2024/01/13 09:14:35;;;;;;;;;;;;;;;1.56;64.32;100023.13;4328332;33;34034;-83
2024/01/13 09:17:06;;;;;;;;;;;;;;;1.68;64.14;100031.16;4326365;33;35775;-86
2024/01/13 09:19:34;;;;;;;;;;;;;;;1.78;64.00;100029.72;4327264;33;33167;-83
2024/01/13 09:22:07;;;;;;;;;;;;;;;2.08;62.66;100034.81;4331306;33;33369;-84
2024/01/13 09:24:35;;;;;;;;;;;;;;;2.21;61.65;100038.53;4327493;33;33930;-82
2024/01/13 09:27:10;;;;;;;;;;;;;;;2.06;62.08;100039.00;4328138;33;35026;-83
2024/01/13 09:29:40;;;;;;;;;;;;;;;2.14;61.66;100036.66;4326006;33;33528;-85
2024/01/13 09:32:09;;;;;;;;;;;;;;;2.10;61.71;100033.16;4323228;33;35417;-83
2024/01/13 09:34:38;;;;;;;;;;;;;;;1.86;62.12;100032.47;4328633;33;33354;-83
2024/01/13 09:37:07;;;;;;;;;;;;;;;1.79;62.96;100028.00;4318543;33;34129;-84
2024/01/13 09:39:39;;;;;;;;;;;;;;;1.85;62.64;100021.38;4307883;33;33099;-83
2024/01/13 09:42:13;;;;;;;;;;;;;;;1.66;63.28;100014.88;4312123;33;33472;-85
2024/01/13 09:44:43;;;;;;;;;;;;;;;1.75;62.66;100013.44;4314703;33;34690;-83
2024/01/13 09:47:16;;;;;;;;;;;;;;;1.87;62.24;100003.53;4311114;33;34025;-82
2024/01/13 09:49:44;;;;;;;;;;;;;;;1.86;62.30;99999.22;4311024;33;33607;-84
2024/01/13 09:52:13;;;;;;;;;;;;;;;1.37;63.63;100002.97;4310723;33;33807;-86
2024/01/13 09:54:46;;;;;;;;;;;;;;;1.42;63.76;99992.06;4321613;33;34442;-86
2024/01/13 09:57:19;;;;;;;;;;;;;;;1.34;64.32;99985.87;4331539;33;34488;-85
2024/01/13 09:59:49;;;;;;;;;;;;;;;1.43;63.84;99985.28;4326607;33;33847;-86
2024/01/13 10:02:20;;;;;;;;;;;;;;;1.39;63.82;99979.19;4326068;33;33446;-84
2024/01/13 10:04:50;;;;;;;;;;;;;;;1.56;63.51;99979.66;4326921;33;34404;-84
2024/01/13 10:07:19;;;;;;;;;;;;;;;1.49;63.22;99978.63;4331487;33;33917;-85
2024/01/13 10:09:56;;;;;;;;;;;;;;;1.56;63.69;99978.81;4331408;33;33033;-84
2024/01/13 10:12:38;;;;;;;;;;;;;;;1.71;62.92;99977.50;4326124;33;34749;-88
2024/01/13 10:15:16;;;;;;;;;;;;;;;1.75;62.49;99975.91;4326560;33;34543;-86
2024/01/13 10:17:46;;;;;;;;;;;;;;;1.51;63.24;99976.13;4326889;33;34177;-84
2024/01/13 10:20:15;;;;;;;;;;;;;;;1.52;63.22;99989.75;4331983;33;33080;-84
2024/01/13 10:22:45;;;;;;;;;;;;;;;1.66;62.91;99985.91;4456846;27;33423;-84
2024/01/13 10:25:22;;;;;;;;;;;;;;;1.55;62.89;99988.16;4326020;33;34258;-87
2024/01/13 10:27:53;;;;;;;;;;;;;;;1.38;63.74;99979.16;4325660;33;33892;-84
2024/01/13 10:30:26;;;;;;;;;;;;;;;1.62;63.45;99976.41;4327470;33;33429;-85
2024/01/13 10:32:55;;;;;;;;;;;;;;;1.73;62.49;99979.25;4331678;33;33677;-84
2024/01/13 10:35:25;;;;;;;;;;;;;;;1.45;62.92;99981.03;4326308;33;34455;-84
2024/01/13 10:37:53;;;;;;;;;;;;;;;1.13;64.10;99968.22;4316728;33;34168;-84
2024/01/13 10:40:26;;;;;;;;;;;;;;;1.40;63.85;99962.16;4311517;33;34012;-86
2024/01/13 10:42:55;;;;;;;;;;;;;;;1.60;63.46;99965.28;4311035;33;33686;-83
2024/01/13 10:45:26;;;;;;;;;;;;;;;1.54;62.95;99960.84;4316629;33;33875;-85
2024/01/13 10:47:59;;;;;;;;;;;;;;;1.58;63.34;99952.44;4311282;33;34033;-87
2024/01/13 10:50:30;;;;;;;;;;;;;;;1.71;62.49;99951.94;4314988;33;32730;-84
2024/01/13 10:52:59;;;;;;;;;;;;;;;1.58;63.05;99944.78;4310136;33;33896;-87
2024/01/13 10:55:28;;;;;;;;;;;;;;;1.96;62.07;99949.16;4312913;33;33809;-84
2024/01/13 10:57:57;;;;;;;;;;;;;;;1.95;61.63;99944.88;4313668;33;34726;-84
2024/01/13 11:00:32;;;;;;;;;;;;;;;2.10;61.25;99938.47;4329985;33;33492;-85
2024/01/13 11:03:01;;;;;;;;;;;;;;;2.20;61.00;99943.78;4325322;33;33769;-84
2024/01/13 11:05:33;;;;;;;;;;;;;;;2.10;61.06;99941.03;4322641;33;32588;-85
2024/01/13 11:08:04;;;;;;;;;;;;;;;1.96;61.25;99941.47;4329569;33;35093;-88
2024/01/13 11:10:35;;;;;;;;;;;;;;;1.95;61.54;99927.81;4327421;33;33690;-86
2024/01/13 11:13:07;;;;;;;;;;;;;;;2.15;61.24;99933.47;4325033;33;34089;-86
2024/01/13 11:15:43;;;;;;;;;;;;;;;1.84;62.04;99927.56;4325172;33;33791;-84
2024/01/13 11:18:17;;;;;;;;;;;;;;;2.12;61.68;99918.88;4320610;33;33812;-88
2024/01/13 11:21:01;;;;;;;;;;;;;;;2.34;60.76;99924.50;4328021;33;33059;-84
2024/01/13 11:23:40;;;;;;;;;;;;;;;2.32;60.87;99926.16;4318498;33;34849;-87
2024/01/13 11:26:09;;;;;;;;;;;;;;;2.49;59.94;99908.63;4324901;33;34292;-84
2024/01/13 11:28:48;;;;;;;;;;;;;;;2.67;59.58;99915.88;4325320;33;33968;-85
2024/01/13 11:31:38;;;;;;;;;;;;;;;2.46;59.68;99906.88;4313972;33;34113;-88
2024/01/13 11:34:17;;;;;;;;;;;;;;;2.25;60.03;99903.84;4312954;33;34563;-85
2024/01/13 11:36:48;;;;;;;;;;;;;;;2.43;60.18;99905.94;4314310;33;34984;-85
2024/01/13 11:39:18;;;;;;;;;;;;;;;2.48;59.80;99896.66;4312100;33;33254;-85
2024/01/13 11:41:54;;;;;;;;;;;;;;;2.46;59.63;99896.63;4309412;33;32724;-85
2024/01/13 11:44:24;;;;;;;;;;;;;;;2.43;59.42;99895.69;4310027;33;33864;-85
2024/01/13 11:47:00;;;;;;;;;;;;;;;2.25;60.48;99891.03;4316307;33;33832;-85
2024/01/13 11:49:33;;;;;;;;;;;;;;;2.56;59.82;99888.34;4314172;33;35112;-85
2024/01/13 11:52:02;;;;;;;;;;;;;;;2.49;59.17;99880.47;4310433;33;33060;-87
2024/01/13 11:54:34;;;;;;;;;;;;;;;2.62;58.78;99869.66;4318079;33;34220;-86
2024/01/13 11:57:03;;;;;;;;;;;;;;;2.50;58.90;99859.16;4323904;33;34692;-84
2024/01/13 11:59:38;;;;;;;;;;;;;;;2.49;58.89;99858.31;4329478;33;33977;-85
2024/01/13 12:02:08;;;;;;;;;;;;;;;2.46;58.84;99863.34;4327603;33;33710;-88
2024/01/13 12:04:39;;;;;;;;;;;;;;;2.27;59.42;99844.16;4326906;33;34083;-85
2024/01/13 12:07:09;;;;;;;;;;;;;;;2.40;59.34;99839.31;4326602;33;33904;-85
2024/01/13 12:09:40;;;;;;;;;;;;;;;2.24;59.96;99840.66;4330094;33;33797;-86
2024/01/13 12:12:08;;;;;;;;;;;;;;;2.20;59.69;99826.03;4332483;33;32596;-87
2024/01/13 12:14:38;;;;;;;;;;;;;;;2.14;59.85;99827.63;4326857;33;33750;-84
2024/01/13 12:17:09;;;;;;;;;;;;;;;2.31;59.13;99825.47;4326512;33;34631;-86
2024/01/13 12:19:39;;;;;;;;;;;;;;;2.61;58.26;99819.28;4327713;33;33953;-84
2024/01/13 12:22:09;;;;;;;;;;;;;;;2.80;57.58;99822.22;4332348;33;35822;-85
2024/01/13 12:24:41;;;;;;;;;;;;;;;2.54;57.43;99817.44;4326543;33;35473;-87
2024/01/13 12:27:12;;;;;;;;;;;;;;;2.50;57.75;99826.72;4327092;33;35394;-85
2024/01/13 12:29:41;;;;;;;;;;;;;;;2.24;58.01;99820.19;4332046;33;34457;-85
2024/01/13 12:32:14;;;;;;;;;;;;;;;2.35;58.38;99811.91;4329761;33;33240;-85
2024/01/13 12:34:44;;;;;;;;;;;;;;;2.60;58.09;99827.78;4332028;33;34317;-85
2024/01/13 12:37:14;;;;;;;;;;;;;;;2.70;57.97;99824.56;4326495;33;34953;-87
2024/01/13 12:39:44;;;;;;;;;;;;;;;2.73;57.46;99818.66;4328511;33;33828;-86
2024/01/13 12:42:16;;;;;;;;;;;;;;;2.61;57.95;99813.28;4326457;33;33594;-85
2024/01/13 12:44:44;;;;;;;;;;;;;;;2.41;58.67;99808.59;4325294;33;34403;-86
2024/01/13 12:47:18;;;;;;;;;;;;;;;2.42;58.56;99807.78;4316004;33;33691;-85
2024/01/13 12:49:47;;;;;;;;;;;;;;;2.30;59.21;99813.50;4322126;33;34117;-86
2024/01/13 12:52:17;;;;;;;;;;;;;;;2.58;58.09;99808.09;4310813;33;33142;-86
2024/01/13 12:54:45;;;;;;;;;;;;;;;2.69;57.74;99806.62;4316168;33;33561;-87
2024/01/13 12:57:19;;;;;;;;;;;;;;;2.83;57.07;99818.03;4329867;33;33890;-86
2024/01/13 13:00:00;;;;;;;;;;;;;;;2.56;57.74;99808.06;4314687;33;34127;-87
2024/01/13 13:02:38;;;;;;;;;;;;;;;2.67;57.34;99801.47;4323465;33;33572;-86
2024/01/13 13:05:07;;;;;;;;;;;;;;;2.87;57.06;99801.84;4319600;33;34488;-85
2024/01/13 13:07:47;;;;;;;;;;;;;;;2.90;56.73;99807.06;4329150;33;33522;-84
2024/01/13 13:10:20;;;;;;;;;;;;;;;2.71;56.71;99804.97;4323849;33;34248;-86